メインページ
METAR-TAF:

METAR-TAF

空港 :

Jefferson County International Airport

ポートタウンゼン, ワシントン, アメリカ合衆国

緯度: 48-03-14N, 経度: 122-48-38W, 海抜: 33m

現時点の気象観測

当レポートは21分前の09:55(UTC)に作成
無風
気温 2°C
湿度 100%
気圧 1016 hPa
視程: 0.8km
高度300ftの曇り

METAR: K0S9 220955Z AUTO 00000KT 1/2SM BR OVC003 02/02 A3000 RMK AO2

時間: 03:16 (10:16 UTC)


TAF: 見つかりません

4,000以上の空港の気象観測と天気予報(METAR報とTAF報)

利用可能な観測所は地図上に黄色い丸と赤い丸で示す。

丸の上にカーソルを重ねると観測所名を参照できる。

次にクリックすると気象観測と天気予報を参照できる。

マップの切り替え:黒色「×」印の緑ボタンをクリックして拡大、「-」印の緑ボタンをクリックして縮小、緑色の三角印をクリックして隣りの地図に切り替え


METAR-TAF: